createdAt,value
2018-06-28T00:01:06.670Z,60395.86
2018-06-28T00:03:34.851Z,60349.11
2018-06-28T00:06:03.052Z,60384.68
2018-06-28T00:08:31.220Z,60366.39
2018-06-28T00:10:59.390Z,60380.61
2018-06-28T00:13:27.566Z,60370.45
2018-06-28T00:15:55.740Z,60389.76
2018-06-28T00:18:24.051Z,60368.42
2018-06-28T00:20:52.243Z,60372.48
2018-06-28T00:23:20.407Z,60374.52
2018-06-28T00:25:48.592Z,60381.63
2018-06-28T00:28:16.771Z,60403.98
2018-06-28T00:30:44.938Z,60383.66
2018-06-28T00:33:13.127Z,60375.53
2018-06-28T00:35:41.327Z,60369.43
2018-06-28T00:38:09.483Z,60381.63
2018-06-28T00:40:37.671Z,60371.46
2018-06-28T00:43:05.851Z,60367.40
2018-06-28T00:45:34.023Z,60385.69
2018-06-28T00:48:02.222Z,60374.52
2018-06-28T00:50:30.387Z,60367.40
2018-06-28T00:52:58.588Z,60376.55
2018-06-28T00:55:26.751Z,60378.58
2018-06-28T00:57:54.922Z,60381.63
2018-06-28T01:00:23.110Z,60357.24
2018-06-28T01:02:51.285Z,60389.76
2018-06-28T01:05:19.451Z,60387.72
2018-06-28T01:07:47.643Z,60375.53
2018-06-28T01:10:15.834Z,60382.64
2018-06-28T01:12:44.015Z,60400.93
2018-06-28T01:15:12.216Z,60360.29
2018-06-28T01:17:40.411Z,60369.43
2018-06-28T01:20:08.620Z,60405.00
2018-06-28T01:22:36.795Z,60359.27
2018-06-28T01:25:05.203Z,60403.98
2018-06-28T01:27:33.399Z,60385.69
2018-06-28T01:30:01.578Z,60366.39
2018-06-28T01:32:29.774Z,60373.50
2018-06-28T01:34:57.971Z,60391.79
2018-06-28T01:37:26.134Z,60382.64
2018-06-28T01:39:54.321Z,60384.68
2018-06-28T01:43:35.339Z,60385.69
2018-06-28T01:46:03.546Z,60360.29
2018-06-28T01:48:31.723Z,60402.97
2018-06-28T01:51:00.059Z,60391.79
2018-06-28T01:53:28.598Z,60380.61
2018-06-28T01:55:56.821Z,60374.52
2018-06-28T01:58:24.991Z,60411.10
2018-06-28T02:00:53.210Z,60385.69
2018-06-28T02:03:21.415Z,60375.53
2018-06-28T02:05:50.699Z,60375.53
2018-06-28T02:08:19.302Z,60378.58
2018-06-28T02:10:47.558Z,60383.66
2018-06-28T02:13:15.795Z,60393.82
2018-06-28T02:15:43.999Z,60386.71
2018-06-28T02:18:12.164Z,60394.84
2018-06-28T02:20:40.779Z,60368.42
2018-06-28T02:23:09.147Z,60376.55
2018-06-28T02:25:37.626Z,60409.07
2018-06-28T02:28:06.095Z,60384.68
2018-06-28T02:30:34.594Z,60399.92
2018-06-28T02:33:02.787Z,60386.71
2018-06-28T02:35:30.982Z,60396.87
2018-06-28T02:37:59.178Z,60377.56
2018-06-28T02:40:27.355Z,60382.64
2018-06-28T02:42:55.526Z,60399.92
2018-06-28T02:45:23.730Z,60386.71
2018-06-28T02:47:51.938Z,60416.18
2018-06-28T02:50:20.110Z,60390.77
2018-06-28T02:52:48.292Z,60396.87
2018-06-28T02:55:16.474Z,60377.56
2018-06-28T02:57:44.663Z,60415.16
2018-06-28T03:00:12.829Z,60384.68
2018-06-28T03:02:41.010Z,60388.74
2018-06-28T03:05:09.170Z,60411.10
2018-06-28T03:07:37.333Z,60408.05
2018-06-28T03:10:05.519Z,60416.18
2018-06-28T03:12:33.678Z,60401.95
2018-06-28T03:15:01.845Z,60403.98
2018-06-28T03:17:30.023Z,60392.80
2018-06-28T03:19:58.242Z,60411.10
2018-06-28T03:22:26.423Z,60392.80
2018-06-28T03:24:54.618Z,60394.84
2018-06-28T03:27:22.795Z,60393.82
2018-06-28T03:29:50.961Z,60429.39
2018-06-28T03:32:19.135Z,60412.11
2018-06-28T03:34:47.322Z,60397.89
2018-06-28T03:37:15.495Z,60391.79
2018-06-28T03:39:43.667Z,60413.13
2018-06-28T03:42:11.835Z,60402.97
2018-06-28T03:44:40.023Z,60400.93
2018-06-28T03:47:08.202Z,60409.07
2018-06-28T03:49:36.494Z,60393.82
2018-06-28T03:52:04.707Z,60395.86
2018-06-28T03:54:32.962Z,60413.13
2018-06-28T03:57:01.157Z,60403.98
2018-06-28T03:59:29.338Z,60397.89
2018-06-28T04:01:57.510Z,60406.02
2018-06-28T04:04:25.686Z,60372.48
2018-06-28T04:06:53.859Z,60409.07
2018-06-28T04:09:22.026Z,60401.95
2018-06-28T04:11:50.206Z,60384.68
2018-06-28T04:14:18.360Z,60381.63
2018-06-28T04:16:46.560Z,60385.69
2018-06-28T04:19:14.739Z,60401.95
2018-06-28T04:21:42.910Z,60412.11
2018-06-28T04:24:11.086Z,60383.66
2018-06-28T04:26:39.258Z,60380.61
2018-06-28T04:29:07.477Z,60401.95
2018-06-28T04:31:35.724Z,60393.82
2018-06-28T04:34:03.910Z,60389.76
2018-06-28T04:36:32.074Z,60391.79
2018-06-28T04:39:00.235Z,60396.87
2018-06-28T04:41:28.420Z,60391.79
2018-06-28T04:43:56.582Z,60401.95
2018-06-28T04:46:24.762Z,60379.59
2018-06-28T04:48:52.962Z,60396.87
2018-06-28T04:51:21.130Z,60402.97
2018-06-28T04:53:49.314Z,60416.18
2018-06-28T04:56:17.535Z,60397.89
2018-06-28T04:58:45.730Z,60381.63
2018-06-28T05:01:13.916Z,60389.76
2018-06-28T05:03:42.070Z,60369.43
2018-06-28T05:06:10.239Z,60379.59
2018-06-28T05:08:38.455Z,60394.84
2018-06-28T05:11:06.655Z,60390.77
2018-06-28T05:13:34.812Z,60381.63
2018-06-28T05:16:02.973Z,60367.40
2018-06-28T05:18:31.226Z,60366.39
2018-06-28T05:20:59.415Z,60368.42
2018-06-28T05:23:27.667Z,60379.59
2018-06-28T05:25:55.762Z,60397.89
2018-06-28T05:28:23.922Z,60366.39
2018-06-28T05:30:52.082Z,60373.50
2018-06-28T05:33:20.239Z,60361.30
2018-06-28T05:35:48.415Z,60373.50
2018-06-28T05:38:16.586Z,60372.48
2018-06-28T05:40:44.748Z,60385.69
2018-06-28T05:43:12.922Z,60366.39
2018-06-28T05:45:41.179Z,60357.24
2018-06-28T05:48:09.323Z,60364.35
2018-06-28T05:50:37.657Z,60369.43
2018-06-28T05:53:05.830Z,60368.42
2018-06-28T05:55:34.425Z,60350.12
2018-06-28T05:58:02.774Z,60353.18
2018-06-28T06:00:30.961Z,60367.40
2018-06-28T06:02:59.119Z,60357.24
2018-06-28T06:05:27.282Z,60378.58
2018-06-28T06:07:55.467Z,60365.37
2018-06-28T06:10:23.628Z,60360.29
2018-06-28T06:12:51.791Z,60356.22
2018-06-28T06:15:20.186Z,60333.87
2018-06-28T06:17:48.359Z,60339.96
2018-06-28T06:20:16.596Z,60360.29
2018-06-28T06:22:44.902Z,60336.91
2018-06-28T06:25:13.066Z,60366.39
2018-06-28T06:27:41.356Z,60351.14
2018-06-28T06:30:09.958Z,60352.16
2018-06-28T06:32:38.116Z,60360.29
2018-06-28T06:35:06.282Z,60328.79
2018-06-28T06:37:34.430Z,60328.79
2018-06-28T06:40:02.635Z,60332.85
2018-06-28T06:42:30.814Z,60337.93
2018-06-28T06:44:59.846Z,60314.56
2018-06-28T06:47:28.027Z,60336.91
2018-06-28T06:49:56.190Z,60337.93
2018-06-28T06:52:24.368Z,60342.00
2018-06-28T06:54:52.510Z,60319.64
2018-06-28T06:57:20.729Z,60328.79
2018-06-28T06:59:48.918Z,60319.64
2018-06-28T07:02:17.122Z,60336.91
2018-06-28T07:04:45.306Z,60339.96
2018-06-28T07:07:13.464Z,60318.62
2018-06-28T07:09:41.640Z,60331.84
2018-06-28T07:12:09.822Z,60290.17
2018-06-28T07:14:37.991Z,60318.62
2018-06-28T07:17:06.151Z,60342.00
2018-06-28T07:19:34.319Z,60312.53
2018-06-28T07:22:02.489Z,60312.53
2018-06-28T07:24:30.639Z,60328.79
2018-06-28T07:26:58.878Z,60347.08
2018-06-28T07:29:26.994Z,60311.51
2018-06-28T07:31:55.178Z,60312.53
2018-06-28T07:34:23.342Z,60315.57
2018-06-28T07:36:51.673Z,60320.66
2018-06-28T07:39:19.839Z,60303.38
2018-06-28T07:41:48.028Z,60315.57
2018-06-28T07:44:16.190Z,60295.25
2018-06-28T07:46:44.393Z,60307.45
2018-06-28T07:49:12.536Z,60306.43
2018-06-28T07:51:40.675Z,60295.25
2018-06-28T07:54:08.843Z,60322.69
2018-06-28T07:56:37.214Z,60292.21
2018-06-28T07:59:05.234Z,60308.46
2018-06-28T08:01:33.503Z,60277.98
2018-06-28T08:04:01.661Z,60295.25
2018-06-28T08:06:29.818Z,60278.99
2018-06-28T08:08:57.994Z,60304.40
2018-06-28T08:11:26.166Z,60309.48
2018-06-28T08:13:54.338Z,60276.96
2018-06-28T08:16:22.538Z,60306.43
2018-06-28T08:18:50.720Z,60282.04
2018-06-28T08:21:18.882Z,60303.38
2018-06-28T08:23:48.202Z,60278.99
2018-06-28T08:26:16.374Z,60274.93
2018-06-28T08:28:44.539Z,60304.40
2018-06-28T08:31:12.716Z,60306.43
2018-06-28T08:33:41.055Z,60276.96
2018-06-28T08:36:09.270Z,60273.91
2018-06-28T08:38:37.420Z,60269.85
2018-06-28T08:41:05.627Z,60278.99
2018-06-28T08:43:33.776Z,60267.82
2018-06-28T08:46:01.971Z,60267.82
2018-06-28T08:48:30.123Z,60268.83
2018-06-28T08:50:58.287Z,60268.83
2018-06-28T08:53:26.446Z,60275.95
2018-06-28T08:55:54.771Z,60295.25
2018-06-28T08:58:23.145Z,60281.03
2018-06-28T09:00:51.259Z,60289.16
2018-06-28T09:03:19.407Z,60275.95
2018-06-28T09:05:47.624Z,60280.01
2018-06-28T09:08:15.730Z,60287.12
2018-06-28T09:10:43.914Z,60266.80
2018-06-28T09:13:12.125Z,60259.69
2018-06-28T09:15:40.263Z,60285.09
2018-06-28T09:18:08.462Z,60276.96
2018-06-28T09:20:36.636Z,60254.61
2018-06-28T09:23:05.130Z,60278.99
2018-06-28T09:25:33.223Z,60275.95
2018-06-28T09:28:01.426Z,60284.07
2018-06-28T09:30:29.595Z,60254.61
2018-06-28T09:32:57.762Z,60267.82
2018-06-28T09:35:25.942Z,60278.99
2018-06-28T09:37:54.122Z,60262.74
2018-06-28T09:40:22.330Z,60250.54
2018-06-28T09:42:50.513Z,60229.20
2018-06-28T09:45:18.702Z,60245.46
2018-06-28T09:47:46.867Z,60246.48
2018-06-28T09:50:15.037Z,60231.24
2018-06-28T09:52:43.215Z,60230.22
2018-06-28T09:55:11.394Z,60230.22
2018-06-28T09:57:39.558Z,60213.96
2018-06-28T10:00:07.848Z,60215.99
2018-06-28T10:02:36.403Z,60223.11
2018-06-28T10:05:04.718Z,60227.17
2018-06-28T10:07:32.867Z,60224.12
2018-06-28T10:10:01.026Z,60226.16
2018-06-28T10:12:29.185Z,60231.24
2018-06-28T10:14:57.358Z,60233.27
2018-06-28T10:17:25.535Z,60224.12
2018-06-28T10:19:53.694Z,60206.85
2018-06-28T10:22:21.864Z,60230.22
2018-06-28T10:24:50.010Z,60199.74
2018-06-28T10:27:18.171Z,60200.75
2018-06-28T10:29:46.326Z,60196.69
2018-06-28T10:32:14.477Z,60193.64
2018-06-28T10:34:42.642Z,60187.54
2018-06-28T10:37:10.802Z,60156.04
2018-06-28T10:39:39.006Z,60160.11
2018-06-28T10:42:07.641Z,60169.25
2018-06-28T10:44:35.839Z,60169.25
2018-06-28T10:47:03.979Z,60148.93
2018-06-28T10:49:32.131Z,60158.07
2018-06-28T10:52:00.292Z,60176.37
2018-06-28T10:54:28.446Z,60160.11
2018-06-28T10:56:56.606Z,60176.37
2018-06-28T10:59:24.772Z,60180.43
2018-06-28T11:01:52.999Z,60191.61
2018-06-28T11:04:21.166Z,60174.33
2018-06-28T11:06:49.331Z,60184.49
2018-06-28T11:09:17.474Z,60157.06
2018-06-28T11:11:45.630Z,60138.77
2018-06-28T11:14:13.791Z,60136.73
2018-06-28T11:16:41.955Z,60136.73
2018-06-28T11:19:10.103Z,60140.80
2018-06-28T11:21:38.263Z,60138.77
2018-06-28T11:24:06.422Z,60151.98
2018-06-28T11:26:34.637Z,60135.72
2018-06-28T11:29:03.010Z,60146.90
2018-06-28T11:31:31.195Z,60160.11
2018-06-28T11:33:59.340Z,60150.96
2018-06-28T11:36:27.498Z,60145.88
2018-06-28T11:38:55.650Z,60128.61
2018-06-28T11:41:23.818Z,60141.82
2018-06-28T11:43:52.059Z,60128.61
2018-06-28T11:46:20.259Z,60120.48
2018-06-28T11:48:48.502Z,60140.80
2018-06-28T11:51:16.678Z,60144.87
2018-06-28T11:53:44.838Z,60137.75
2018-06-28T11:56:12.982Z,60145.88
2018-06-28T11:58:41.174Z,60153.00
2018-06-28T12:01:09.344Z,60146.90
2018-06-28T12:03:37.514Z,60151.98
2018-06-28T12:06:05.710Z,60139.79
2018-06-28T12:08:33.878Z,60134.70
2018-06-28T12:11:02.042Z,60124.54
2018-06-28T12:13:30.194Z,60123.53
2018-06-28T12:15:58.366Z,60122.51
2018-06-28T12:18:26.530Z,60139.79
2018-06-28T12:20:54.690Z,60166.20
2018-06-28T12:23:22.834Z,60160.11
2018-06-28T12:25:51.022Z,60143.85
2018-06-28T12:28:19.170Z,60157.06
2018-06-28T12:30:47.354Z,60158.07
2018-06-28T12:33:15.566Z,60163.16
2018-06-28T12:35:43.710Z,60157.06
2018-06-28T12:38:11.891Z,60164.17
2018-06-28T12:40:40.109Z,60166.20
2018-06-28T12:43:08.302Z,60174.33
2018-06-28T12:45:36.478Z,60157.06
2018-06-28T12:48:06.570Z,60157.06
2018-06-28T12:50:34.842Z,60156.04
2018-06-28T12:53:04.107Z,60143.85
2018-06-28T12:56:37.578Z,60157.06
2018-06-28T12:59:08.142Z,60156.04
2018-06-28T13:01:36.439Z,60148.93
2018-06-28T13:04:04.666Z,60159.09
2018-06-28T13:06:32.863Z,60175.35
2018-06-28T13:09:01.575Z,60183.48
2018-06-28T13:11:29.937Z,60162.14
2018-06-28T13:13:58.095Z,60166.20
2018-06-28T13:16:27.643Z,60171.29
2018-06-28T13:18:55.807Z,60164.17
2018-06-28T13:21:23.989Z,60166.20
2018-06-28T13:23:52.158Z,60157.06
2018-06-28T13:26:20.331Z,60175.35
2018-06-28T13:28:48.531Z,60167.22
2018-06-28T13:31:16.759Z,60143.85
2018-06-28T13:33:44.970Z,60142.83
2018-06-28T13:36:13.117Z,60156.04
2018-06-28T13:38:41.458Z,60157.06
2018-06-28T13:41:09.819Z,60144.87
2018-06-28T13:43:37.828Z,60173.32
2018-06-28T13:46:06.420Z,60177.38
2018-06-28T13:48:34.599Z,60183.48
2018-06-28T13:51:03.361Z,60185.51
2018-06-28T13:53:31.522Z,60177.38
2018-06-28T13:55:59.692Z,60158.07
2018-06-28T13:58:27.861Z,60170.27
2018-06-28T14:00:56.030Z,60182.46
2018-06-28T14:03:24.317Z,60182.46
2018-06-28T14:05:52.387Z,60179.41
2018-06-28T14:08:20.554Z,60164.17
2018-06-28T14:10:48.762Z,60172.30
2018-06-28T14:13:16.998Z,60180.43
2018-06-28T14:15:45.402Z,60190.59
2018-06-28T14:18:13.582Z,60170.27
2018-06-28T14:20:41.896Z,60179.41
2018-06-28T14:23:10.064Z,60172.30
2018-06-28T14:25:38.514Z,60180.43
2018-06-28T14:28:06.736Z,60169.25
2018-06-28T14:30:34.862Z,60189.57
2018-06-28T14:33:03.038Z,60184.49
2018-06-28T14:35:31.843Z,60192.62
2018-06-28T14:38:00.130Z,60187.54
2018-06-28T14:40:28.323Z,60177.38
2018-06-28T14:42:56.510Z,60179.41
2018-06-28T14:45:24.742Z,60190.59
2018-06-28T14:47:53.070Z,60190.59
2018-06-28T14:50:21.321Z,60201.77
2018-06-28T14:52:49.504Z,60207.86
2018-06-28T14:55:17.699Z,60204.82
2018-06-28T14:57:45.886Z,60198.72
2018-06-28T15:00:14.093Z,60204.82
2018-06-28T15:02:42.986Z,60186.52
2018-06-28T15:05:11.266Z,60199.74
2018-06-28T15:07:39.485Z,60203.80
2018-06-28T15:10:08.108Z,60188.56
2018-06-28T15:12:36.378Z,60196.69
2018-06-28T15:15:05.046Z,60181.45
2018-06-28T15:17:33.630Z,60192.62
2018-06-28T15:20:01.823Z,60188.56
2018-06-28T15:22:30.314Z,60194.66
2018-06-28T15:24:58.541Z,60192.62
2018-06-28T15:27:26.858Z,60193.64
2018-06-28T15:29:55.393Z,60185.51
2018-06-28T15:32:23.897Z,60194.66
2018-06-28T15:34:52.130Z,60204.82
2018-06-28T15:37:20.488Z,60203.80
2018-06-28T15:39:48.699Z,60202.79
2018-06-28T15:42:16.908Z,60183.48
2018-06-28T15:44:45.087Z,60184.49
2018-06-28T15:47:13.896Z,60192.62
2018-06-28T15:49:42.234Z,60187.54
2018-06-28T15:52:10.487Z,60189.57
2018-06-28T15:54:38.810Z,60198.72
2018-06-28T15:57:07.123Z,60197.70
2018-06-28T15:59:35.541Z,60206.85
2018-06-28T16:02:03.828Z,60198.72
2018-06-28T16:04:32.126Z,60179.41
2018-06-28T16:07:00.699Z,60183.48
2018-06-28T16:09:28.888Z,60174.33
2018-06-28T16:11:57.050Z,60177.38
2018-06-28T16:14:25.326Z,60193.64
2018-06-28T16:16:53.490Z,60189.57
2018-06-28T16:19:21.646Z,60184.49
2018-06-28T16:21:49.830Z,60197.70
2018-06-28T16:24:18.017Z,60179.41
2018-06-28T16:26:46.198Z,60189.57
2018-06-28T16:29:14.355Z,60209.90
2018-06-28T16:31:42.563Z,60204.82
2018-06-28T16:34:10.742Z,60199.74
2018-06-28T16:36:39.159Z,60194.66
2018-06-28T16:39:09.270Z,60207.86
2018-06-28T16:41:37.610Z,60210.91
2018-06-28T16:44:06.126Z,60177.38
2018-06-28T16:46:34.738Z,60200.75
2018-06-28T16:49:02.867Z,60199.74
2018-06-28T16:51:31.047Z,60192.62
2018-06-28T16:53:59.210Z,60204.82
2018-06-28T16:56:27.442Z,60192.62
2018-06-28T16:58:55.747Z,60177.38
2018-06-28T17:01:23.986Z,60184.49
2018-06-28T17:03:52.159Z,60194.66
2018-06-28T17:06:20.346Z,60208.88
2018-06-28T17:08:48.526Z,60196.69
2018-06-28T17:11:16.790Z,60223.11
2018-06-28T17:13:44.969Z,60219.04
2018-06-28T17:16:13.155Z,60197.70
2018-06-28T17:18:41.520Z,60213.96
2018-06-28T17:21:09.806Z,60212.95
2018-06-28T17:23:38.051Z,60205.83
2018-06-28T17:26:06.563Z,60207.86
2018-06-28T17:28:34.998Z,60209.90
2018-06-28T17:31:03.145Z,60195.67
2018-06-28T17:33:31.343Z,60195.67
2018-06-28T17:35:59.498Z,60189.57
2018-06-28T17:38:27.686Z,60223.11
2018-06-28T17:40:55.847Z,60201.77
2018-06-28T17:43:24.018Z,60208.88
2018-06-28T17:45:52.245Z,60213.96
2018-06-28T17:48:20.426Z,60212.95
2018-06-28T17:50:48.614Z,60215.99
2018-06-28T17:53:16.779Z,60219.04
2018-06-28T17:55:44.966Z,60211.93
2018-06-28T17:58:13.347Z,60195.67
2018-06-28T18:00:41.562Z,60210.91
2018-06-28T18:03:09.730Z,60222.09
2018-06-28T18:05:38.782Z,60205.83
2018-06-28T18:08:07.317Z,60204.82
2018-06-28T18:10:35.883Z,60205.83
2018-06-28T18:13:04.167Z,60196.69
2018-06-28T18:15:32.528Z,60228.19
2018-06-28T18:18:01.533Z,60209.90
2018-06-28T18:20:29.792Z,60203.80
2018-06-28T18:22:58.038Z,60217.01
2018-06-28T18:25:26.542Z,60206.85
2018-06-28T18:27:54.973Z,60237.33
2018-06-28T18:30:23.448Z,60202.79
2018-06-28T18:32:53.218Z,60223.11
2018-06-28T18:35:21.491Z,60207.86
2018-06-28T18:37:50.016Z,60206.85
2018-06-28T18:40:18.506Z,60223.11
2018-06-28T18:42:46.727Z,60225.14
2018-06-28T18:45:15.059Z,60231.24
2018-06-28T18:47:43.274Z,60215.99
2018-06-28T18:50:11.666Z,60226.16
2018-06-28T18:52:39.918Z,60245.46
2018-06-28T18:55:08.247Z,60238.35
2018-06-28T18:57:36.842Z,60241.40
2018-06-28T19:00:05.822Z,60219.04
2018-06-28T19:02:34.231Z,60236.32
2018-06-28T19:05:02.491Z,60243.43
2018-06-28T19:07:30.751Z,60239.36
2018-06-28T19:10:04.485Z,60238.35
2018-06-28T19:12:32.706Z,60245.46
2018-06-28T19:15:06.098Z,60240.38
2018-06-28T19:17:34.770Z,60251.56
2018-06-28T19:20:02.994Z,60248.51
2018-06-28T19:22:36.546Z,60232.25
2018-06-28T19:25:05.830Z,60233.27
2018-06-28T19:27:34.361Z,60248.51
2018-06-28T19:30:08.183Z,60247.49
2018-06-28T19:32:36.535Z,60266.80
2018-06-28T19:35:04.730Z,60258.67
2018-06-28T19:37:38.078Z,60240.38
2018-06-28T19:40:13.011Z,60250.54
2018-06-28T19:42:46.477Z,60271.88
2018-06-28T19:45:14.837Z,60246.48
2018-06-28T19:47:43.006Z,60269.85
2018-06-28T19:50:16.334Z,60254.61
2018-06-28T19:52:49.838Z,60265.79
2018-06-28T19:55:18.010Z,60250.54
2018-06-28T19:57:46.168Z,60258.67
2018-06-28T20:00:19.598Z,60274.93
2018-06-28T20:02:53.019Z,60266.80
2018-06-28T20:05:21.218Z,60288.14
2018-06-28T20:07:49.450Z,60274.93
2018-06-28T20:10:17.638Z,60278.99
2018-06-28T20:12:51.072Z,60265.79
2018-06-28T20:15:28.078Z,60269.85
2018-06-28T20:18:02.054Z,60285.09
2018-06-28T20:20:32.143Z,60254.61
2018-06-28T20:23:00.415Z,60282.04
2018-06-28T20:25:28.614Z,60294.24
2018-06-28T20:28:02.103Z,60268.83
2018-06-28T20:30:35.558Z,60280.01
2018-06-28T20:33:09.082Z,60265.79
2018-06-28T20:35:37.312Z,60292.21
2018-06-28T20:38:05.414Z,60292.21
2018-06-28T20:40:33.580Z,60287.12
2018-06-28T20:43:01.762Z,60300.34
2018-06-28T20:45:29.923Z,60273.91
2018-06-28T20:47:58.095Z,60277.98
2018-06-28T20:50:26.434Z,60283.06
2018-06-28T20:52:54.654Z,60281.03
2018-06-28T20:55:22.843Z,60289.16
2018-06-28T20:57:51.014Z,60289.16
2018-06-28T21:00:19.198Z,60284.07
2018-06-28T21:02:47.399Z,60289.16
2018-06-28T21:05:15.559Z,60292.21
2018-06-28T21:07:43.926Z,60290.17
2018-06-28T21:10:12.094Z,60269.85
2018-06-28T21:12:40.262Z,60301.35
2018-06-28T21:15:08.458Z,60285.09
2018-06-28T21:17:36.618Z,60281.03
2018-06-28T21:20:05.579Z,60289.16
2018-06-28T21:22:33.766Z,60280.01
2018-06-28T21:25:02.059Z,60290.17
2018-06-28T21:27:30.250Z,60290.17
2018-06-28T21:29:58.426Z,60296.27
2018-06-28T21:32:26.610Z,60317.61
2018-06-28T21:34:54.792Z,60263.75
2018-06-28T21:37:22.982Z,60298.30
2018-06-28T21:39:51.150Z,60298.30
2018-06-28T21:42:19.326Z,60296.27
2018-06-28T21:44:47.506Z,60293.22
2018-06-28T21:47:15.667Z,60295.25
2018-06-28T21:49:43.826Z,60312.53
2018-06-28T21:52:12.074Z,60293.22
2018-06-28T21:54:40.245Z,60289.16
2018-06-28T21:57:08.455Z,60298.30
2018-06-28T21:59:36.634Z,60308.46
2018-06-28T22:02:04.942Z,60309.48
2018-06-28T22:04:33.139Z,60309.48
2018-06-28T22:07:01.354Z,60281.03
2018-06-28T22:09:29.522Z,60304.40
2018-06-28T22:11:57.695Z,60312.53
2018-06-28T22:14:25.904Z,60306.43
2018-06-28T22:16:54.031Z,60316.59
2018-06-28T22:19:22.236Z,60308.46
2018-06-28T22:21:50.362Z,60294.24
2018-06-28T22:24:18.555Z,60315.57
2018-06-28T22:26:46.725Z,60306.43
2018-06-28T22:29:14.902Z,60271.88
2018-06-28T22:31:43.080Z,60294.24
2018-06-28T22:34:11.412Z,60319.64
2018-06-28T22:36:39.518Z,60303.38
2018-06-28T22:39:10.996Z,60303.38
2018-06-28T22:41:39.166Z,60299.32
2018-06-28T22:44:07.347Z,60307.45
2018-06-28T22:46:35.893Z,60303.38
2018-06-28T22:49:04.302Z,60303.38
2018-06-28T22:51:32.463Z,60315.57
2018-06-28T22:54:00.826Z,60309.48
2018-06-28T22:56:29.022Z,60308.46
2018-06-28T22:58:57.178Z,60311.51
2018-06-28T23:01:25.346Z,60318.62
2018-06-28T23:03:53.562Z,60259.69
2018-06-28T23:06:21.764Z,60288.14
2018-06-28T23:08:49.943Z,60310.50
2018-06-28T23:11:18.146Z,60334.88
2018-06-28T23:13:46.298Z,60319.64
2018-06-28T23:16:14.463Z,60304.40
2018-06-28T23:18:42.622Z,60323.71
2018-06-28T23:21:10.795Z,60305.41
2018-06-28T23:23:39.006Z,60297.29
2018-06-28T23:26:07.179Z,60306.43
2018-06-28T23:28:35.342Z,60310.50
2018-06-28T23:31:03.516Z,60305.41
2018-06-28T23:33:31.686Z,60316.59
2018-06-28T23:35:59.886Z,60298.30
2018-06-28T23:38:28.079Z,60333.87
2018-06-28T23:40:56.266Z,60323.71
2018-06-28T23:43:24.430Z,60311.51
2018-06-28T23:45:52.593Z,60321.67
2018-06-28T23:48:20.759Z,60322.69
2018-06-28T23:50:48.989Z,60305.41
2018-06-28T23:53:17.098Z,60308.46
2018-06-28T23:55:45.276Z,60320.66
2018-06-28T23:58:13.442Z,60312.53
